createdAt,value
2023-02-21T00:00:56.577Z,5.60
2023-02-21T00:04:57.133Z,5.68
2023-02-21T00:08:57.907Z,5.78
2023-02-21T00:12:58.292Z,7.40
2023-02-21T00:16:58.545Z,6.15
2023-02-21T00:20:58.865Z,5.72
2023-02-21T00:24:59.549Z,5.27
2023-02-21T00:28:59.745Z,7.18
2023-02-21T00:33:00.076Z,5.80
2023-02-21T00:37:00.762Z,6.13
2023-02-21T00:41:01.455Z,6.22
2023-02-21T00:45:01.781Z,6.95
2023-02-21T00:49:02.426Z,5.85
2023-02-21T00:53:03.147Z,7.50
2023-02-21T00:57:04.374Z,5.63
2023-02-21T01:01:04.731Z,6.28
2023-02-21T01:05:05.343Z,5.10
2023-02-21T01:09:06.259Z,5.28
2023-02-21T01:13:06.535Z,8.50
2023-02-21T01:17:13.172Z,5.40
2023-02-21T01:21:14.335Z,5.95
2023-02-21T01:25:15.316Z,6.65
2023-02-21T01:29:15.641Z,6.53
2023-02-21T01:33:16.374Z,6.37
2023-02-21T01:37:16.619Z,6.30
2023-02-21T01:41:17.124Z,6.30
2023-02-21T01:45:42.161Z,7.27
2023-02-21T01:49:42.879Z,5.95
2023-02-21T01:53:45.184Z,7.13
2023-02-21T01:57:46.151Z,6.93
2023-02-21T02:02:12.819Z,5.30
2023-02-21T02:06:27.328Z,7.53
2023-02-21T02:10:29.336Z,5.30
2023-02-21T02:14:30.558Z,5.20
2023-02-21T02:18:15.495Z,9.00
2023-02-21T02:22:21.190Z,7.78
2023-02-21T02:26:31.118Z,8.30
2023-02-21T02:30:35.445Z,5.95
2023-02-21T02:34:47.669Z,5.85
2023-02-21T02:38:44.550Z,6.20
2023-02-21T02:42:51.559Z,5.85
2023-02-21T02:46:37.498Z,5.07
2023-02-21T02:50:22.528Z,4.95
2023-02-21T02:54:05.388Z,4.13
2023-02-21T02:57:48.969Z,4.35
2023-02-21T03:01:33.676Z,3.78
2023-02-21T03:05:24.524Z,5.60
2023-02-21T03:09:42.616Z,3.95
2023-02-21T03:13:30.495Z,5.00
2023-02-21T03:17:16.346Z,4.18
2023-02-21T03:21:00.711Z,5.43
2023-02-21T03:24:45.595Z,4.45
2023-02-21T03:28:29.171Z,6.22
2023-02-21T03:32:17.651Z,5.20
2023-02-21T03:36:01.123Z,5.68
2023-02-21T03:39:43.216Z,5.07
2023-02-21T03:43:25.236Z,5.53
2023-02-21T03:47:07.252Z,4.00
2023-02-21T03:50:49.532Z,4.10
2023-02-21T03:54:31.582Z,4.20
2023-02-21T03:58:13.584Z,4.53
2023-02-21T04:01:55.641Z,4.55
2023-02-21T04:05:37.717Z,4.68
2023-02-21T04:09:19.710Z,4.80
2023-02-21T04:13:01.746Z,4.68
2023-02-21T04:16:43.791Z,4.95
2023-02-21T04:20:25.803Z,4.57
2023-02-21T04:24:07.930Z,4.18
2023-02-21T04:27:49.904Z,4.10
2023-02-21T04:31:33.153Z,4.40
2023-02-21T04:35:15.277Z,6.07
2023-02-21T04:38:57.251Z,5.40
2023-02-21T04:42:39.257Z,4.85
2023-02-21T04:46:21.258Z,4.60
2023-02-21T04:50:04.137Z,4.88
2023-02-21T04:53:48.154Z,4.85
2023-02-21T04:57:30.084Z,5.33
2023-02-21T05:01:13.100Z,5.38
2023-02-21T05:04:55.371Z,4.80
2023-02-21T05:08:37.419Z,4.85
2023-02-21T05:12:19.397Z,4.68
2023-02-21T05:16:01.665Z,5.03
2023-02-21T05:19:43.651Z,5.40
2023-02-21T05:23:34.416Z,4.30
2023-02-21T05:27:18.935Z,5.40
2023-02-21T05:31:01.355Z,5.78
2023-02-21T05:34:44.713Z,6.00
2023-02-21T05:38:27.814Z,5.22
2023-02-21T05:42:10.139Z,4.97
2023-02-21T05:45:52.140Z,4.95
2023-02-21T05:49:34.225Z,5.20
2023-02-21T05:53:16.184Z,6.72
2023-02-21T05:56:58.194Z,5.68
2023-02-21T06:00:40.263Z,6.93
2023-02-21T06:04:22.228Z,8.48
2023-02-21T06:08:04.317Z,7.00
2023-02-21T06:11:46.369Z,4.70
2023-02-21T06:15:28.480Z,5.43
2023-02-21T06:19:12.733Z,6.70
2023-02-21T06:22:54.787Z,6.95
2023-02-21T06:26:37.466Z,5.75
2023-02-21T06:30:21.115Z,6.05
2023-02-21T06:34:05.646Z,6.10
2023-02-21T06:37:47.609Z,8.57
2023-02-21T06:41:31.048Z,6.60
2023-02-21T06:45:13.477Z,6.13
2023-02-21T06:48:55.548Z,7.37
2023-02-21T06:52:37.647Z,7.38
2023-02-21T06:56:19.703Z,7.55
2023-02-21T07:00:02.930Z,7.73
2023-02-21T07:03:46.310Z,7.40
2023-02-21T07:07:28.497Z,8.38
2023-02-21T07:11:10.710Z,8.20
2023-02-21T07:14:52.850Z,6.83
2023-02-21T07:18:34.948Z,8.05
2023-02-21T07:22:17.114Z,9.45
2023-02-21T07:25:59.203Z,6.97
2023-02-21T07:29:41.374Z,7.82
2023-02-21T07:33:23.361Z,8.13
2023-02-21T07:37:05.596Z,8.30
2023-02-21T07:40:50.744Z,9.05
2023-02-21T07:44:32.944Z,8.88
2023-02-21T07:48:15.045Z,8.55
2023-02-21T07:51:57.719Z,11.10
2023-02-21T07:56:07.859Z,10.02
2023-02-21T08:00:36.834Z,10.23
2023-02-21T08:04:21.949Z,9.03
2023-02-21T08:08:06.812Z,10.00
2023-02-21T08:11:48.928Z,10.55
2023-02-21T08:15:31.026Z,12.33
2023-02-21T08:19:13.108Z,10.35
2023-02-21T08:22:57.513Z,10.93
2023-02-21T08:26:41.925Z,12.32
2023-02-21T08:30:26.706Z,12.03
2023-02-21T08:34:09.460Z,11.77
2023-02-21T08:37:51.968Z,13.02
2023-02-21T08:41:42.457Z,12.53
2023-02-21T08:45:26.567Z,11.75
2023-02-21T08:49:11.305Z,13.25
2023-02-21T08:52:54.539Z,15.20
2023-02-21T08:56:36.596Z,13.93
2023-02-21T09:00:23.584Z,13.57
2023-02-21T09:04:06.143Z,13.55
2023-02-21T09:07:52.054Z,12.00
2023-02-21T09:11:36.513Z,13.48
2023-02-21T09:15:18.705Z,13.93
2023-02-21T09:19:06.955Z,13.37
2023-02-21T09:22:50.365Z,12.82
2023-02-21T09:26:32.380Z,14.73
2023-02-21T09:30:26.145Z,12.90
2023-02-21T09:38:11.161Z,15.98
2023-02-21T09:41:55.632Z,13.77
2023-02-21T09:45:38.808Z,13.07
2023-02-21T09:49:31.424Z,15.48
2023-02-21T09:53:19.258Z,13.70
2023-02-21T09:57:05.867Z,14.43
2023-02-21T10:00:48.097Z,14.73
2023-02-21T10:04:42.261Z,14.95
2023-02-21T10:08:37.310Z,13.90
2023-02-21T10:12:34.178Z,12.88
2023-02-21T10:16:29.762Z,10.80
2023-02-21T10:20:21.752Z,13.07
2023-02-21T10:24:15.786Z,13.20
2023-02-21T10:27:59.828Z,36.20
2023-02-21T10:31:43.612Z,15.52
2023-02-21T10:35:25.846Z,12.03
2023-02-21T10:39:41.851Z,11.82
2023-02-21T10:43:42.078Z,10.05
2023-02-21T10:47:47.098Z,9.80
2023-02-21T10:51:34.568Z,8.95
2023-02-21T10:55:32.217Z,11.25
2023-02-21T10:59:34.033Z,8.35
2023-02-21T11:03:19.288Z,8.43
2023-02-21T11:11:11.107Z,8.25
2023-02-21T11:15:19.211Z,9.10
2023-02-21T11:19:06.354Z,6.55
2023-02-21T11:26:56.507Z,5.60
2023-02-21T11:31:38.577Z,6.72
2023-02-21T11:35:54.828Z,7.40
2023-02-21T11:43:56.748Z,7.20
2023-02-21T11:48:08.007Z,7.38
2023-02-21T11:51:54.800Z,8.23
2023-02-21T11:56:11.190Z,7.27
2023-02-21T12:08:45.184Z,7.13
2023-02-21T12:13:02.977Z,6.10
2023-02-21T12:21:12.539Z,6.80
2023-02-21T12:38:08.981Z,5.40
2023-02-21T17:33:55.373Z,13.95
2023-02-21T17:37:38.579Z,14.35
2023-02-21T17:41:21.434Z,15.53
2023-02-21T17:45:03.763Z,14.75
2023-02-21T17:48:45.962Z,14.73
2023-02-21T17:52:28.214Z,14.63
2023-02-21T17:56:10.200Z,15.43
2023-02-21T17:59:52.300Z,15.95
2023-02-21T18:03:34.368Z,17.92
2023-02-21T18:07:16.388Z,19.15
2023-02-21T18:10:58.367Z,21.92
2023-02-21T18:14:40.320Z,19.17
2023-02-21T18:18:22.309Z,21.67
2023-02-21T18:22:07.415Z,20.75
2023-02-21T18:25:49.619Z,22.70
2023-02-21T18:29:32.236Z,22.57
2023-02-21T18:33:14.610Z,22.27
2023-02-21T18:36:56.634Z,23.13
2023-02-21T18:40:45.495Z,22.10
2023-02-21T18:44:27.508Z,27.52
2023-02-21T18:48:09.504Z,25.48
2023-02-21T18:51:52.164Z,22.60
2023-02-21T18:55:34.339Z,30.13
2023-02-21T18:59:21.987Z,26.50
2023-02-21T19:03:06.430Z,29.15
2023-02-21T19:06:48.452Z,25.37
2023-02-21T19:10:31.296Z,26.67
2023-02-21T19:14:15.643Z,28.77
2023-02-21T19:17:59.178Z,27.20
2023-02-21T19:21:41.274Z,28.73
2023-02-21T19:25:27.905Z,28.73
2023-02-21T19:29:09.935Z,30.98
2023-02-21T19:32:52.000Z,30.27
2023-02-21T19:36:34.132Z,30.85
2023-02-21T19:40:16.154Z,29.67
2023-02-21T19:43:58.123Z,32.03
2023-02-21T19:47:40.491Z,35.08
2023-02-21T19:51:24.847Z,34.97
2023-02-21T19:55:07.751Z,33.22
2023-02-21T19:58:49.781Z,31.83
2023-02-21T20:02:32.228Z,33.88
2023-02-21T20:06:14.445Z,32.05
2023-02-21T20:09:56.478Z,32.73
2023-02-21T20:13:39.163Z,31.05
2023-02-21T20:17:21.191Z,32.78
2023-02-21T20:21:03.541Z,32.60
2023-02-21T20:24:46.162Z,36.13
2023-02-21T20:28:28.327Z,33.20
2023-02-21T20:32:11.381Z,30.73
2023-02-21T20:35:53.665Z,31.30
2023-02-21T20:39:54.558Z,33.40
2023-02-21T20:43:37.627Z,35.03
2023-02-21T20:47:22.241Z,33.63
2023-02-21T20:51:06.530Z,35.33
2023-02-21T20:54:48.875Z,35.17
2023-02-21T20:58:31.289Z,35.90
2023-02-21T21:02:13.783Z,41.33
2023-02-21T21:05:55.970Z,38.92
2023-02-21T21:09:38.931Z,41.15
2023-02-21T21:13:20.970Z,38.30
2023-02-21T21:17:04.442Z,41.13
2023-02-21T21:20:46.755Z,37.08
2023-02-21T21:24:29.273Z,36.83
2023-02-21T21:28:13.276Z,34.92
2023-02-21T21:31:55.492Z,35.83
2023-02-21T21:35:37.750Z,36.40
2023-02-21T21:39:23.409Z,32.03
2023-02-21T21:43:07.726Z,36.38
2023-02-21T21:46:51.484Z,35.17
2023-02-21T21:50:33.713Z,35.45
2023-02-21T21:54:20.786Z,32.72
2023-02-21T21:58:10.672Z,34.20
2023-02-21T22:01:58.125Z,32.27
2023-02-21T22:05:42.964Z,31.02
2023-02-21T22:09:25.873Z,31.15
2023-02-21T22:13:13.747Z,32.10
2023-02-21T22:16:55.970Z,34.08
2023-02-21T22:20:38.306Z,32.33
2023-02-21T22:24:22.555Z,34.27
2023-02-21T22:28:10.235Z,32.40
2023-02-21T22:31:52.621Z,34.50
2023-02-21T22:35:34.872Z,31.85
2023-02-21T22:39:16.871Z,32.33
2023-02-21T22:43:01.711Z,34.67
2023-02-21T22:46:46.278Z,30.95
2023-02-21T22:50:28.296Z,31.30
2023-02-21T22:54:14.626Z,34.60
2023-02-21T22:58:01.286Z,34.40
2023-02-21T23:01:45.474Z,33.47
2023-02-21T23:05:27.570Z,34.22
2023-02-21T23:09:14.358Z,31.90
2023-02-21T23:12:58.720Z,33.00
2023-02-21T23:16:41.325Z,33.13
2023-02-21T23:20:26.798Z,33.35
2023-02-21T23:24:11.528Z,32.88
2023-02-21T23:27:58.649Z,32.83
2023-02-21T23:31:41.418Z,33.00
2023-02-21T23:35:23.447Z,36.80
2023-02-21T23:39:09.230Z,35.13
2023-02-21T23:42:54.686Z,31.33
2023-02-21T23:46:40.794Z,33.38
2023-02-21T23:50:30.612Z,34.20
2023-02-21T23:54:13.783Z,33.13
2023-02-21T23:58:03.764Z,41.35
